Time;durP1;ratioP1;P1;durP2;ratioP2;P2;SDS_P1;SDS_P2;PMS_P1;PMS_P2;Temp;Humidity;BMP_temperature;BMP_pressure;BME280_temperature;BME280_humidity;BME280_pressure;Samples;Min_cycle;Max_cycle;Signal;HPM_P1;HPM_P2
2020/12/01 00:01:35;;;;;;;30.10;18.02;;;;;;;;;;5040104;28;20533;-84
2020/12/01 00:04:01;;;;;;;27.42;17.45;;;;;;;;;;5039123;28;20045;-84
2020/12/01 00:06:37;;;;;;;35.03;16.42;;;;;;;;;;5052983;28;20060;-84
2020/12/01 00:09:03;;;;;;;29.25;17.50;;;;;;;;;;5079428;28;20070;-84
2020/12/01 00:11:38;;;;;;;27.02;17.00;;;;;;;;;;5060639;28;20052;-84
2020/12/01 00:14:07;;;;;;;34.33;18.88;;;;;;;;;;5058226;28;20052;-84
2020/12/01 00:16:33;;;;;;;31.58;18.80;;;;;;;;;;5059134;28;20064;-84
2020/12/01 00:19:07;;;;;;;30.45;17.88;;;;;;;;;;5066391;28;20048;-84
2020/12/01 00:21:33;;;;;;;32.72;18.80;;;;;;;;;;5072603;28;20032;-84
2020/12/01 00:24:12;;;;;;;;;;;;;;;;;;;;;
2020/12/01 00:26:39;;;;;;;33.75;20.00;;;;;;;;;;5063388;28;20053;-84
2020/12/01 00:29:05;;;;;;;34.80;19.67;;;;;;;;;;5062776;28;20068;-84
2020/12/01 00:31:44;;;;;;;35.90;19.55;;;;;;;;;;5064093;28;20052;-84
2020/12/01 00:34:11;;;;;;;35.38;19.58;;;;;;;;;;5062710;28;20087;-83
2020/12/01 00:36:40;;;;;;;33.72;19.98;;;;;;;;;;5074318;28;20080;-82
2020/12/01 00:39:07;;;;;;;38.17;21.17;;;;;;;;;;5068251;28;20056;-82
2020/12/01 00:41:37;;;;;;;38.33;20.75;;;;;;;;;;5059852;28;20063;-82
2020/12/01 00:44:09;;;;;;;37.40;19.75;;;;;;;;;;5060353;28;20098;-82
2020/12/01 00:46:35;;;;;;;39.88;21.30;;;;;;;;;;5060268;28;20139;-83
2020/12/01 00:49:07;;;;;;;35.17;21.02;;;;;;;;;;5059247;28;20576;-84
2020/12/01 00:51:37;;;;;;;43.38;23.15;;;;;;;;;;5063161;28;20060;-83
2020/12/01 00:54:06;;;;;;;39.90;22.45;;;;;;;;;;5062827;28;20049;-83
2020/12/01 00:56:37;;;;;;;35.05;21.58;;;;;;;;;;5065762;28;20072;-83
2020/12/01 00:59:10;;;;;;;36.80;21.38;;;;;;;;;;5063357;28;20059;-83
2020/12/01 01:01:36;;;;;;;37.35;21.65;;;;;;;;;;5063727;28;20059;-82
2020/12/01 01:04:04;;;;;;;39.20;21.90;;;;;;;;;;5064187;28;20045;-83
2020/12/01 01:06:39;;;;;;;37.50;21.95;;;;;;;;;;5064287;28;20108;-83
2020/12/01 01:09:06;;;;;;;40.40;22.75;;;;;;;;;;5067167;28;20060;-83
2020/12/01 01:11:35;;;;;;;38.65;22.85;;;;;;;;;;5064445;28;20049;-83
2020/12/01 01:14:01;;;;;;;37.83;22.70;;;;;;;;;;5063100;28;20455;-83
2020/12/01 01:16:30;;;;;;;42.42;24.35;;;;;;;;;;5064518;28;20056;-84
2020/12/01 01:19:05;;;;;;;37.95;21.75;;;;;;;;;;5064265;28;20080;-84
2020/12/01 01:21:40;;;;;;;38.90;22.90;;;;;;;;;;5063988;28;20053;-84
2020/12/01 01:24:11;;;;;;;42.70;22.83;;;;;;;;;;5062428;28;20056;-84
2020/12/01 01:26:40;;;;;;;38.05;22.90;;;;;;;;;;5063054;28;20056;-84
2020/12/01 01:29:06;;;;;;;42.40;23.15;;;;;;;;;;5062733;28;20131;-84
2020/12/01 01:31:34;;;;;;;41.58;23.88;;;;;;;;;;5062700;28;20386;-84
2020/12/01 01:34:03;;;;;;;43.70;23.40;;;;;;;;;;5062855;28;20146;-84
2020/12/01 01:36:33;;;;;;;38.85;23.55;;;;;;;;;;5063177;28;20059;-84
2020/12/01 01:38:59;;;;;;;40.78;24.30;;;;;;;;;;5062849;28;20132;-84
2020/12/01 01:41:30;;;;;;;44.38;24.40;;;;;;;;;;5058425;28;20053;-82
2020/12/01 01:43:56;;;;;;;43.70;24.38;;;;;;;;;;5057094;28;20037;-82
2020/12/01 01:46:26;;;;;;;40.47;22.52;;;;;;;;;;5069050;28;20033;-82
2020/12/01 01:48:52;;;;;;;44.78;23.85;;;;;;;;;;5066118;28;20036;-83
2020/12/01 01:51:22;;;;;;;42.75;23.33;;;;;;;;;;5068187;28;20079;-83
2020/12/01 01:53:50;;;;;;;45.33;24.15;;;;;;;;;;5067030;28;20396;-84
2020/12/01 01:56:19;;;;;;;43.58;23.90;;;;;;;;;;5075429;28;20052;-83
2020/12/01 01:58:45;;;;;;;39.10;23.05;;;;;;;;;;5074372;28;20053;-84
2020/12/01 02:01:14;;;;;;;35.40;22.67;;;;;;;;;;5067547;28;20393;-83
2020/12/01 02:03:45;;;;;;;39.13;22.33;;;;;;;;;;5064729;28;20063;-85
2020/12/01 02:06:14;;;;;;;36.72;21.52;;;;;;;;;;5063146;28;20056;-83
2020/12/01 02:08:42;;;;;;;35.28;21.30;;;;;;;;;;5062189;28;20053;-83
2020/12/01 02:11:09;;;;;;;36.40;22.30;;;;;;;;;;5064402;28;20111;-83
2020/12/01 02:13:38;;;;;;;34.55;21.60;;;;;;;;;;5064308;28;20124;-83
2020/12/01 02:16:04;;;;;;;36.83;22.70;;;;;;;;;;5064169;28;20056;-83
2020/12/01 02:18:33;;;;;;;36.05;22.00;;;;;;;;;;5064075;28;20060;-83
2020/12/01 02:20:59;;;;;;;35.67;21.65;;;;;;;;;;5062622;28;20053;-83
2020/12/01 02:23:26;;;;;;;34.72;21.15;;;;;;;;;;5063224;28;20057;-83
2020/12/01 02:25:52;;;;;;;33.17;21.13;;;;;;;;;;5063092;28;20133;-84
2020/12/01 02:28:18;;;;;;;39.22;21.00;;;;;;;;;;5063459;28;20079;-84
2020/12/01 02:30:46;;;;;;;35.83;21.75;;;;;;;;;;5063097;28;20080;-83
2020/12/01 02:33:12;;;;;;;38.38;23.10;;;;;;;;;;5061226;28;20064;-83
2020/12/01 02:35:39;;;;;;;34.22;20.33;;;;;;;;;;5060793;28;20092;-83
2020/12/01 02:38:05;;;;;;;30.63;19.13;;;;;;;;;;5061668;28;20048;-83
2020/12/01 02:40:31;;;;;;;31.77;20.90;;;;;;;;;;5061415;28;20060;-83
2020/12/01 02:43:04;;;;;;;34.63;20.42;;;;;;;;;;5062446;28;20048;-83
2020/12/01 02:45:30;;;;;;;33.90;21.60;;;;;;;;;;5060721;28;20353;-83
2020/12/01 02:47:56;;;;;;;32.65;20.40;;;;;;;;;;5061689;28;20045;-83
2020/12/01 02:50:22;;;;;;;36.45;20.35;;;;;;;;;;5060843;28;20103;-83
2020/12/01 02:53:03;;;;;;;31.20;20.40;;;;;;;;;;5060651;28;20067;-83
2020/12/01 02:55:29;;;;;;;31.13;20.23;;;;;;;;;;5061016;28;20056;-82
2020/12/01 02:57:56;;;;;;;32.75;22.05;;;;;;;;;;5061450;28;20048;-83
2020/12/01 03:00:33;;;;;;;31.92;20.50;;;;;;;;;;5059330;28;20041;-82
2020/12/01 03:03:00;;;;;;;29.20;18.75;;;;;;;;;;5058909;28;20048;-83
2020/12/01 03:05:26;;;;;;;29.05;18.77;;;;;;;;;;5057907;28;20060;-83
2020/12/01 03:07:55;;;;;;;29.45;19.27;;;;;;;;;;5061064;28;20067;-83
2020/12/01 03:10:21;;;;;;;26.27;18.67;;;;;;;;;;5075993;28;20047;-82
2020/12/01 03:12:55;;;;;;;31.05;18.58;;;;;;;;;;5074329;28;20053;-83
2020/12/01 03:15:27;;;;;;;30.95;18.67;;;;;;;;;;5064284;28;20045;-83
2020/12/01 03:18:01;;;;;;;29.75;19.20;;;;;;;;;;5068108;28;20037;-83
2020/12/01 03:20:36;;;;;;;28.25;18.25;;;;;;;;;;5068090;28;20056;-83
2020/12/01 03:23:02;;;;;;;27.67;18.58;;;;;;;;;;5076648;28;20043;-83
2020/12/01 03:25:31;;;;;;;29.27;18.45;;;;;;;;;;5071173;28;20148;-83
2020/12/01 03:27:57;;;;;;;27.40;18.50;;;;;;;;;;5059047;28;20063;-83
2020/12/01 03:30:30;;;;;;;32.70;18.23;;;;;;;;;;5057754;28;20066;-83
2020/12/01 03:32:58;;;;;;;28.33;17.80;;;;;;;;;;5059477;28;20479;-83
2020/12/01 03:35:35;;;;;;;25.15;17.20;;;;;;;;;;5059695;28;20053;-83
2020/12/01 03:38:01;;;;;;;;;;;;;;;;;;5059700;28;20324;-83
2020/12/01 03:40:36;;;;;;;30.02;17.10;;;;;;;;;;5059334;28;19932;-83
2020/12/01 03:43:03;;;;;;;25.88;17.40;;;;;;;;;;5058437;28;20059;-83
2020/12/01 03:45:32;;;;;;;24.35;15.43;;;;;;;;;;5057865;28;20087;-83
2020/12/01 03:48:08;;;;;;;24.02;17.00;;;;;;;;;;5057680;28;20053;-83
2020/12/01 03:50:34;;;;;;;24.67;17.27;;;;;;;;;;5058153;28;20056;-83
2020/12/01 03:53:01;;;;;;;25.92;17.33;;;;;;;;;;5059871;28;20056;-83
2020/12/01 03:55:27;;;;;;;27.38;17.33;;;;;;;;;;5058362;28;20060;-83
2020/12/01 03:57:54;;;;;;;24.55;16.35;;;;;;;;;;5058374;28;20053;-83
2020/12/01 04:00:22;;;;;;;25.65;17.13;;;;;;;;;;5059314;28;20049;-83
2020/12/01 04:02:48;;;;;;;25.45;16.70;;;;;;;;;;5057572;28;20057;-83
2020/12/01 04:05:16;;;;;;;27.30;16.33;;;;;;;;;;5058480;28;20048;-84
2020/12/01 04:07:43;;;;;;;26.60;17.35;;;;;;;;;;5059861;28;20314;-83
2020/12/01 04:10:10;;;;;;;26.15;16.58;;;;;;;;;;5058805;28;20067;-83
2020/12/01 04:12:37;;;;;;;28.48;16.92;;;;;;;;;;5059003;28;20084;-84
2020/12/01 04:15:03;;;;;;;26.05;16.20;;;;;;;;;;5058487;28;20045;-84
2020/12/01 04:17:30;;;;;;;26.88;18.13;;;;;;;;;;5057756;28;20417;-83
2020/12/01 04:19:56;;;;;;;23.90;16.40;;;;;;;;;;5058024;28;20048;-83
2020/12/01 04:22:23;;;;;;;21.15;15.23;;;;;;;;;;5058634;28;20072;-83
2020/12/01 04:24:49;;;;;;;26.45;17.42;;;;;;;;;;5061335;28;20045;-84
2020/12/01 04:27:16;;;;;;;25.13;16.70;;;;;;;;;;5060706;28;20052;-84
2020/12/01 04:29:43;;;;;;;27.05;16.45;;;;;;;;;;5060241;28;20155;-82
2020/12/01 04:32:09;;;;;;;25.60;16.00;;;;;;;;;;5062431;28;20053;-83
2020/12/01 04:34:36;;;;;;;28.50;18.10;;;;;;;;;;5073546;28;20052;-84
2020/12/01 04:37:04;;;;;;;24.85;15.98;;;;;;;;;;5072583;28;20069;-83
2020/12/01 04:39:30;;;;;;;24.67;16.25;;;;;;;;;;5064514;28;20544;-82
2020/12/01 04:41:56;;;;;;;21.08;15.00;;;;;;;;;;5061984;28;20045;-81
2020/12/01 04:44:23;;;;;;;22.90;15.05;;;;;;;;;;5060913;28;20045;-81
2020/12/01 04:46:50;;;;;;;23.40;15.25;;;;;;;;;;5059871;28;20052;-81
2020/12/01 04:49:24;;;;;;;24.63;15.73;;;;;;;;;;5059899;28;20053;-81
2020/12/01 04:52:16;;;;;;;24.50;16.40;;;;;;;;;;5041688;28;20064;-81
2020/12/01 04:55:01;;;;;;;24.63;16.25;;;;;;;;;;5058338;28;20110;-81
2020/12/01 04:57:46;;;;;;;27.25;17.25;;;;;;;;;;5056241;28;20045;-82
2020/12/01 05:00:12;;;;;;;24.42;16.27;;;;;;;;;;5057087;28;20152;-82
2020/12/01 05:02:59;;;;;;;27.33;18.58;;;;;;;;;;5059263;28;20056;-82
2020/12/01 05:05:49;;;;;;;26.90;16.58;;;;;;;;;;5055635;28;20053;-82
2020/12/01 05:08:27;;;;;;;25.83;15.68;;;;;;;;;;5045596;28;20087;-81
2020/12/01 05:10:55;;;;;;;26.83;17.05;;;;;;;;;;5037300;28;20117;-81
2020/12/01 05:13:26;;;;;;;25.45;16.35;;;;;;;;;;5077452;28;20103;-82
2020/12/01 05:16:00;;;;;;;25.08;16.98;;;;;;;;;;5073472;28;20053;-82
2020/12/01 05:18:28;;;;;;;30.10;18.27;;;;;;;;;;5052020;28;20061;-83
2020/12/01 05:21:05;;;;;;;27.77;17.15;;;;;;;;;;5042871;28;20144;-83
2020/12/01 05:23:39;;;;;;;26.42;17.48;;;;;;;;;;5041455;28;20106;-83
2020/12/01 05:26:07;;;;;;;28.70;18.08;;;;;;;;;;5063827;28;20067;-83
2020/12/01 05:28:44;;;;;;;28.40;17.48;;;;;;;;;;5070650;28;20148;-82
2020/12/01 05:31:10;;;;;;;24.63;16.73;;;;;;;;;;5063469;28;20083;-82
2020/12/01 05:33:36;;;;;;;26.92;16.98;;;;;;;;;;5058620;28;20205;-82
2020/12/01 05:36:20;;;;;;;25.35;17.30;;;;;;;;;;5058990;28;20304;-82
2020/12/01 05:39:07;;;;;;;27.15;17.27;;;;;;;;;;5062014;28;20413;-82
2020/12/01 05:41:37;;;;;;;25.83;17.23;;;;;;;;;;5058831;28;20044;-82
2020/12/01 05:44:13;;;;;;;26.75;17.65;;;;;;;;;;5059769;28;20045;-82
2020/12/01 05:46:46;;;;;;;27.65;17.83;;;;;;;;;;5057682;28;20241;-83
2020/12/01 05:49:24;;;;;;;30.65;17.83;;;;;;;;;;5060094;28;20053;-83
2020/12/01 05:52:11;;;;;;;30.10;21.40;;;;;;;;;;5061787;28;20060;-84
2020/12/01 05:54:39;;;;;;;26.10;18.10;;;;;;;;;;5059581;28;20056;-84
2020/12/01 05:57:19;;;;;;;30.15;20.63;;;;;;;;;;5059585;28;20143;-83
2020/12/01 06:00:04;;;;;;;24.77;16.85;;;;;;;;;;5071055;28;20079;-82
2020/12/01 06:02:42;;;;;;;25.40;16.55;;;;;;;;;;5074723;28;20053;-83
2020/12/01 06:05:13;;;;;;;26.65;17.70;;;;;;;;;;5072950;28;20057;-83
2020/12/01 06:07:46;;;;;;;28.45;18.55;;;;;;;;;;5072212;28;20049;-83
2020/12/01 06:10:16;;;;;;;28.65;18.75;;;;;;;;;;5069711;28;20047;-83
2020/12/01 06:12:42;;;;;;;25.15;17.30;;;;;;;;;;5063356;28;20401;-83
2020/12/01 06:15:15;;;;;;;30.55;19.52;;;;;;;;;;5048718;28;20290;-83
2020/12/01 06:17:50;;;;;;;27.63;18.85;;;;;;;;;;5036123;28;20049;-84
2020/12/01 06:20:43;;;;;;;25.35;16.08;;;;;;;;;;5041155;28;20060;-84
2020/12/01 06:23:27;;;;;;;32.05;19.17;;;;;;;;;;5048627;28;20415;-83
2020/12/01 06:26:17;;;;;;;31.60;18.63;;;;;;;;;;5048114;28;20147;-83
2020/12/01 06:29:05;;;;;;;35.78;19.20;;;;;;;;;;5047373;28;20178;-83
2020/12/01 06:31:51;;;;;;;33.08;19.75;;;;;;;;;;5036067;28;20046;-82
2020/12/01 06:34:20;;;;;;;30.88;19.08;;;;;;;;;;5048804;28;20131;-83
2020/12/01 06:37:06;;;;;;;33.45;19.95;;;;;;;;;;5049296;28;20289;-83
2020/12/01 06:39:40;;;;;;;36.30;20.90;;;;;;;;;;5036325;28;20048;-83
2020/12/01 06:42:13;;;;;;;33.58;21.00;;;;;;;;;;5051034;28;20056;-83
2020/12/01 06:44:42;;;;;;;38.58;20.88;;;;;;;;;;5054251;28;20055;-83
2020/12/01 06:47:08;;;;;;;43.63;21.55;;;;;;;;;;5050618;28;20791;-84
2020/12/01 06:49:35;;;;;;;36.38;19.95;;;;;;;;;;5052868;28;20385;-83
2020/12/01 06:52:10;;;;;;;37.03;18.88;;;;;;;;;;5052361;28;20044;-84
2020/12/01 06:54:45;;;;;;;33.95;19.25;;;;;;;;;;5048847;28;20099;-83
2020/12/01 06:57:34;;;;;;;37.10;22.73;;;;;;;;;;5052894;28;20139;-83
2020/12/01 07:00:01;;;;;;;36.45;19.83;;;;;;;;;;5051280;28;20051;-83
2020/12/01 07:02:32;;;;;;;32.85;19.98;;;;;;;;;;5046541;28;20041;-82
2020/12/01 07:05:10;;;;;;;36.47;19.48;;;;;;;;;;5053034;28;20045;-82
2020/12/01 07:07:39;;;;;;;35.85;20.95;;;;;;;;;;5048750;28;20045;-82
2020/12/01 07:10:25;;;;;;;40.58;19.52;;;;;;;;;;5052354;28;20391;-83
2020/12/01 07:13:02;;;;;;;31.20;19.23;;;;;;;;;;5055254;28;20416;-83
2020/12/01 07:15:40;;;;;;;38.00;21.20;;;;;;;;;;5050798;28;20057;-83
2020/12/01 07:18:16;;;;;;;31.10;19.15;;;;;;;;;;5047785;28;20049;-83
2020/12/01 07:20:43;;;;;;;33.00;19.88;;;;;;;;;;5053955;28;20049;-82
2020/12/01 07:23:19;;;;;;;32.80;19.50;;;;;;;;;;5064475;28;20035;-82
2020/12/01 07:25:45;;;;;;;;;;;;;;;;;;5069321;28;20222;-82
2020/12/01 07:28:25;;;;;;;31.80;19.23;;;;;;;;;;5061840;28;19921;-82
2020/12/01 07:31:00;;;;;;;41.33;18.98;;;;;;;;;;5053346;28;20108;-82
2020/12/01 07:33:35;;;;;;;38.33;19.45;;;;;;;;;;5054446;28;20056;-83
2020/12/01 07:36:03;;;;;;;;;;;;;;;;;;5056712;28;20306;-83
2020/12/01 07:38:40;;;;;;;38.47;21.35;;;;;;;;;;5052604;28;19956;-83
2020/12/01 07:41:25;;;;;;;35.25;20.02;;;;;;;;;;5054934;28;20231;-83
2020/12/01 07:43:58;;;;;;;37.40;22.52;;;;;;;;;;5082899;28;20048;-83
2020/12/01 07:46:24;;;;;;;41.85;22.70;;;;;;;;;;5054585;28;20045;-83
2020/12/01 07:48:58;;;;;;;40.03;22.13;;;;;;;;;;5052199;28;20048;-83
2020/12/01 07:51:25;;;;;;;49.55;25.25;;;;;;;;;;5053660;28;20389;-83
2020/12/01 07:54:05;;;;;;;48.38;25.70;;;;;;;;;;5051975;28;20041;-83
2020/12/01 07:56:31;;;;;;;52.08;24.20;;;;;;;;;;5052285;28;20045;-83
2020/12/01 07:59:09;;;;;;;57.65;28.13;;;;;;;;;;5054560;28;20521;-83
2020/12/01 08:01:35;;;;;;;49.05;26.67;;;;;;;;;;5048812;28;20099;-83
2020/12/01 08:04:03;;;;;;;54.47;27.30;;;;;;;;;;5045800;28;20052;-84
2020/12/01 08:06:29;;;;;;;44.42;24.92;;;;;;;;;;5052996;28;20092;-83
2020/12/01 08:08:55;;;;;;;43.08;22.63;;;;;;;;;;5052416;28;20130;-83
2020/12/01 08:11:22;;;;;;;49.22;23.88;;;;;;;;;;5051265;28;20047;-83
2020/12/01 08:13:53;;;;;;;44.95;24.40;;;;;;;;;;5046584;28;20370;-83
2020/12/01 08:16:21;;;;;;;56.40;24.85;;;;;;;;;;5052417;28;20073;-83
2020/12/01 08:18:52;;;;;;;56.90;25.38;;;;;;;;;;5048169;28;20417;-83
2020/12/01 08:21:28;;;;;;;54.78;26.17;;;;;;;;;;5048661;28;20309;-83
2020/12/01 08:23:57;;;;;;;48.05;24.50;;;;;;;;;;5049190;28;20068;-83
2020/12/01 08:26:25;;;;;;;50.13;23.75;;;;;;;;;;5053761;28;20083;-82
2020/12/01 08:29:06;;;;;;;54.92;25.02;;;;;;;;;;5050615;28;20134;-83
2020/12/01 08:31:38;;;;;;;45.97;24.65;;;;;;;;;;5053523;28;20098;-83
2020/12/01 08:34:30;;;;;;;50.70;24.10;;;;;;;;;;5051500;28;20395;-82
2020/12/01 08:37:17;;;;;;;49.70;24.88;;;;;;;;;;5051822;28;20048;-83
2020/12/01 08:39:44;;;;;;;48.67;24.92;;;;;;;;;;5051313;28;20053;-83
2020/12/01 08:42:21;;;;;;;47.72;24.00;;;;;;;;;;5066260;28;20076;-83
2020/12/01 08:44:56;;;;;;;49.45;21.73;;;;;;;;;;5065018;28;20041;-83
2020/12/01 08:47:23;;;;;;;48.50;24.73;;;;;;;;;;5060088;28;20037;-83
2020/12/01 08:49:50;;;;;;;48.53;25.23;;;;;;;;;;5062864;28;20077;-83
2020/12/01 08:52:35;;;;;;;48.90;23.55;;;;;;;;;;5053670;28;20045;-84
2020/12/01 08:55:23;;;;;;;56.50;25.17;;;;;;;;;;5059020;28;20072;-83
2020/12/01 08:58:15;;;;;;;50.72;24.15;;;;;;;;;;5053896;28;20068;-83
2020/12/01 09:00:57;;;;;;;41.50;24.02;;;;;;;;;;5061010;28;20060;-83
2020/12/01 09:03:26;;;;;;;50.78;24.13;;;;;;;;;;5087811;28;20053;-84
2020/12/01 09:05:53;;;;;;;48.83;24.38;;;;;;;;;;5049557;28;20041;-84
2020/12/01 09:11:04;;;;;;;44.15;23.00;;;;;;;;;;5044721;28;20068;-84
2020/12/01 09:13:33;;;;;;;55.42;25.88;;;;;;;;;;5053410;28;20049;-84
2020/12/01 09:16:33;;;;;;;57.58;26.48;;;;;;;;;;5054405;28;20069;-84
2020/12/01 09:19:51;;;;;;;55.17;24.70;;;;;;;;;;5055049;28;20049;-84
2020/12/01 09:22:11;;;;;;;44.28;22.75;;;;;;;;;;5053151;28;20041;-85
2020/12/01 09:24:45;;;;;;;50.70;23.33;;;;;;;;;;5047028;28;20053;-83
2020/12/01 09:27:17;;;;;;;51.42;23.65;;;;;;;;;;5051282;28;20732;-82
2020/12/01 09:29:45;;;;;;;59.95;24.33;;;;;;;;;;5043639;28;20375;-83
2020/12/01 09:32:14;;;;;;;56.83;23.17;;;;;;;;;;5047061;28;20049;-82
2020/12/01 09:34:41;;;;;;;41.80;23.60;;;;;;;;;;5046598;28;20053;-82
2020/12/01 09:37:07;;;;;;;34.13;20.73;;;;;;;;;;5047302;28;20073;-82
2020/12/01 09:39:33;;;;;;;41.08;21.55;;;;;;;;;;5049158;28;20055;-82
2020/12/01 09:42:21;;;;;;;41.92;20.58;;;;;;;;;;5045333;28;20122;-82
2020/12/01 09:47:29;;;;;;;31.23;19.38;;;;;;;;;;5046657;28;20088;-83
2020/12/01 09:49:55;;;;;;;32.80;20.42;;;;;;;;;;5048148;28;20076;-84
2020/12/01 09:52:31;;;;;;;52.75;20.55;;;;;;;;;;5053242;28;20045;-83
2020/12/01 10:08:43;;;;;;;33.70;17.95;;;;;;;;;;5048973;28;20144;-83
2020/12/01 10:19:57;;;;;;;33.65;20.15;;;;;;;;;;5055253;28;20048;-83
2020/12/01 10:35:32;;;;;;;32.47;18.20;;;;;;;;;;5038862;28;20053;-84
2020/12/01 10:37:59;;;;;;;35.63;19.15;;;;;;;;;;5055048;28;20140;-84
2020/12/01 10:40:29;;;;;;;30.85;17.98;;;;;;;;;;5052404;28;20146;-85
2020/12/01 10:43:02;;;;;;;26.48;15.68;;;;;;;;;;5052812;28;20156;-85
2020/12/01 10:45:31;;;;;;;25.25;15.55;;;;;;;;;;5054204;28;20325;-85
2020/12/01 10:48:27;;;;;;;27.73;17.05;;;;;;;;;;5053855;28;20500;-86
2020/12/01 10:50:56;;;;;;;31.02;16.10;;;;;;;;;;5053427;28;20083;-87
2020/12/01 10:53:25;;;;;;;28.35;15.82;;;;;;;;;;5053677;28;20053;-86
2020/12/01 10:55:54;;;;;;;25.05;15.38;;;;;;;;;;5052934;28;20072;-87
2020/12/01 10:58:21;;;;;;;27.83;15.80;;;;;;;;;;5053442;28;20136;-86
2020/12/01 11:00:47;;;;;;;27.13;15.68;;;;;;;;;;5053749;28;20049;-86
2020/12/01 11:03:13;;;;;;;20.58;13.15;;;;;;;;;;5053649;28;20045;-86
2020/12/01 11:05:41;;;;;;;19.38;12.05;;;;;;;;;;5050706;28;20044;-86
2020/12/01 11:08:10;;;;;;;20.05;11.70;;;;;;;;;;5032482;28;20075;-85
2020/12/01 11:10:43;;;;;;;18.25;11.05;;;;;;;;;;5044148;28;20405;-86
2020/12/01 11:13:09;;;;;;;23.40;12.40;;;;;;;;;;5051783;28;20049;-86
2020/12/01 11:15:36;;;;;;;15.63;9.68;;;;;;;;;;5051438;28;20041;-85
2020/12/01 11:18:06;;;;;;;15.63;9.57;;;;;;;;;;5033098;28;20053;-85
2020/12/01 11:20:33;;;;;;;14.25;9.32;;;;;;;;;;5045180;28;20277;-85
2020/12/01 11:22:59;;;;;;;16.75;10.35;;;;;;;;;;5054033;28;20055;-85
2020/12/01 11:25:25;;;;;;;11.60;8.43;;;;;;;;;;5035073;28;20291;-85
2020/12/01 11:27:52;;;;;;;14.98;9.25;;;;;;;;;;5037070;28;20057;-85
2020/12/01 11:30:21;;;;;;;15.07;8.90;;;;;;;;;;5054171;28;20165;-86
2020/12/01 11:32:48;;;;;;;11.60;8.25;;;;;;;;;;5050604;28;20109;-86
2020/12/01 11:35:15;;;;;;;12.48;7.85;;;;;;;;;;5033279;28;20112;-86
2020/12/01 11:37:41;;;;;;;12.48;8.00;;;;;;;;;;5042570;28;20476;-87
2020/12/01 11:40:11;;;;;;;12.57;7.70;;;;;;;;;;5067342;28;20120;-86
2020/12/01 11:42:38;;;;;;;11.38;7.65;;;;;;;;;;5067899;28;20090;-86
2020/12/01 11:45:06;;;;;;;13.88;8.10;;;;;;;;;;5051583;28;20045;-86
2020/12/01 11:47:33;;;;;;;14.32;9.25;;;;;;;;;;5043956;28;20033;-86
2020/12/01 11:49:59;;;;;;;12.23;8.70;;;;;;;;;;5042695;28;20288;-85
2020/12/01 11:52:25;;;;;;;14.27;9.05;;;;;;;;;;5048324;28;20064;-83
2020/12/01 11:54:51;;;;;;;12.63;8.82;;;;;;;;;;5050503;28;20286;-84
2020/12/01 11:57:18;;;;;;;10.48;8.25;;;;;;;;;;5054856;28;20045;-84
2020/12/01 11:59:50;;;;;;;13.32;8.38;;;;;;;;;;5060526;28;20067;-85
2020/12/01 12:02:16;;;;;;;9.85;6.90;;;;;;;;;;5054337;28;20049;-85
2020/12/01 12:04:51;;;;;;;11.65;7.20;;;;;;;;;;5066271;28;20079;-85
2020/12/01 12:07:24;;;;;;;8.73;6.65;;;;;;;;;;5080100;28;20045;-85
2020/12/01 12:09:51;;;;;;;14.05;7.95;;;;;;;;;;5062835;28;20108;-86
2020/12/01 12:12:17;;;;;;;10.73;7.63;;;;;;;;;;5058205;28;20044;-86
2020/12/01 12:14:44;;;;;;;10.32;6.90;;;;;;;;;;5060249;28;20032;-85
2020/12/01 12:17:12;;;;;;;14.80;7.68;;;;;;;;;;5069702;28;20067;-85
2020/12/01 12:19:39;;;;;;;11.40;7.78;;;;;;;;;;5060915;28;20059;-86
2020/12/01 12:22:08;;;;;;;11.50;7.97;;;;;;;;;;5056525;28;20059;-85
2020/12/01 12:24:35;;;;;;;11.82;8.57;;;;;;;;;;5056430;28;20099;-86
2020/12/01 12:27:03;;;;;;;13.98;9.05;;;;;;;;;;5044767;28;20197;-84
2020/12/01 12:29:49;;;;;;;16.42;9.57;;;;;;;;;;5041059;28;20046;-86
2020/12/01 12:32:15;;;;;;;15.63;9.75;;;;;;;;;;5050104;28;20080;-86
2020/12/01 12:34:42;;;;;;;14.95;9.68;;;;;;;;;;5045058;28;20110;-86
2020/12/01 12:37:09;;;;;;;16.80;11.73;;;;;;;;;;5054126;28;20118;-86
2020/12/01 12:39:36;;;;;;;22.10;13.73;;;;;;;;;;5037386;28;20115;-86
2020/12/01 12:42:27;;;;;;;21.75;12.40;;;;;;;;;;5045113;28;20257;-88
2020/12/01 12:44:59;;;;;;;21.92;12.85;;;;;;;;;;5059306;28;20052;-86
2020/12/01 12:47:27;;;;;;;23.25;13.00;;;;;;;;;;5058563;28;20122;-85
2020/12/01 12:49:57;;;;;;;23.77;14.15;;;;;;;;;;5052603;28;20048;-86
2020/12/01 12:52:25;;;;;;;24.63;14.68;;;;;;;;;;5060924;28;20045;-86
2020/12/01 12:54:51;;;;;;;25.98;15.80;;;;;;;;;;5056224;28;20425;-84
2020/12/01 12:57:21;;;;;;;30.80;15.00;;;;;;;;;;5040282;28;20080;-86
2020/12/01 12:59:48;;;;;;;29.95;16.73;;;;;;;;;;5053749;28;20362;-85
2020/12/01 13:02:16;;;;;;;25.27;14.60;;;;;;;;;;5063883;28;20041;-84
2020/12/01 13:04:50;;;;;;;27.50;14.52;;;;;;;;;;5069054;28;20033;-85
2020/12/01 13:07:30;;;;;;;29.88;15.25;;;;;;;;;;5041771;28;20049;-85
2020/12/01 13:09:58;;;;;;;32.72;16.92;;;;;;;;;;5038528;28;20561;-87
2020/12/01 13:12:32;;;;;;;30.90;15.90;;;;;;;;;;5034922;28;20048;-86
2020/12/01 13:14:58;;;;;;;27.63;14.90;;;;;;;;;;5036594;28;20049;-85
2020/12/01 13:17:26;;;;;;;29.55;15.82;;;;;;;;;;5038275;28;20421;-85
2020/12/01 13:19:54;;;;;;;28.65;15.00;;;;;;;;;;5046657;28;20053;-85
2020/12/01 13:22:21;;;;;;;32.08;16.00;;;;;;;;;;5041192;28;20069;-85
2020/12/01 13:24:48;;;;;;;30.77;15.20;;;;;;;;;;5038918;28;20045;-85
2020/12/01 13:27:16;;;;;;;33.30;17.17;;;;;;;;;;5040001;28;20053;-85
2020/12/01 13:29:43;;;;;;;30.27;15.27;;;;;;;;;;5040952;28;20464;-85
2020/12/01 13:32:10;;;;;;;30.30;16.67;;;;;;;;;;5077318;28;20053;-85
2020/12/01 13:34:37;;;;;;;27.67;14.38;;;;;;;;;;5076735;28;20066;-84
2020/12/01 13:37:03;;;;;;;28.83;14.70;;;;;;;;;;5076988;28;20136;-85
2020/12/01 13:39:33;;;;;;;34.10;16.15;;;;;;;;;;5074543;28;20105;-85
2020/12/01 13:41:59;;;;;;;30.05;15.95;;;;;;;;;;5067099;28;20053;-85
2020/12/01 13:44:25;;;;;;;33.30;16.75;;;;;;;;;;5057292;28;20053;-85
2020/12/01 13:46:54;;;;;;;31.60;16.23;;;;;;;;;;5055964;28;20340;-84
2020/12/01 13:49:20;;;;;;;25.98;13.77;;;;;;;;;;5041014;28;20053;-84
2020/12/01 13:51:47;;;;;;;26.80;12.82;;;;;;;;;;5043500;28;20068;-84
2020/12/01 13:54:14;;;;;;;24.42;13.23;;;;;;;;;;5053273;28;20053;-84
2020/12/01 13:59:15;;;;;;;31.30;14.93;;;;;;;;;;5178767;22;20340;-85
2020/12/01 14:01:41;;;;;;;33.47;13.95;;;;;;;;;;5079732;28;20163;-85
2020/12/01 14:04:10;;;;;;;27.50;14.65;;;;;;;;;;5092087;28;20138;-84
2020/12/01 14:06:53;;;;;;;34.42;14.95;;;;;;;;;;5071094;28;20067;-85
2020/12/01 14:09:24;;;;;;;34.75;15.05;;;;;;;;;;5082055;28;20172;-84
2020/12/01 14:11:52;;;;;;;31.70;16.52;;;;;;;;;;5100479;28;20233;-84
2020/12/01 14:14:18;;;;;;;36.35;17.33;;;;;;;;;;5083447;28;20039;-85
2020/12/01 14:16:51;;;;;;;28.95;14.88;;;;;;;;;;5100397;28;20052;-84
2020/12/01 14:19:17;;;;;;;31.73;15.15;;;;;;;;;;5076979;28;20296;-85
2020/12/01 14:21:44;;;;;;;27.23;14.60;;;;;;;;;;5097610;28;20134;-85
2020/12/01 14:24:16;;;;;;;30.70;16.02;;;;;;;;;;5099508;28;20059;-84
2020/12/01 14:26:44;;;;;;;29.45;16.20;;;;;;;;;;5100924;28;20075;-85
2020/12/01 14:29:11;;;;;;;38.00;21.67;;;;;;;;;;5112047;28;20228;-83
2020/12/01 14:31:47;;;;;;;29.33;16.00;;;;;;;;;;5104139;28;20072;-85
2020/12/01 14:34:15;;;;;;;35.85;17.02;;;;;;;;;;5068409;28;20056;-86
2020/12/01 14:36:41;;;;;;;32.28;15.25;;;;;;;;;;5083563;28;20049;-86
2020/12/01 14:39:39;;;;;;;31.17;15.75;;;;;;;;;;5074087;28;20036;-86
2020/12/01 14:42:06;;;;;;;31.83;16.33;;;;;;;;;;5075673;28;20053;-85
2020/12/01 14:44:33;;;;;;;30.13;16.58;;;;;;;;;;5110159;28;20032;-84
2020/12/01 14:47:18;;;;;;;30.20;16.63;;;;;;;;;;5087285;28;20048;-85
2020/12/01 14:50:04;;;;;;;35.53;16.42;;;;;;;;;;5083122;28;20327;-85
2020/12/01 14:52:40;;;;;;;30.85;16.40;;;;;;;;;;5079775;28;20147;-85
2020/12/01 14:55:09;;;;;;;30.48;15.88;;;;;;;;;;5103554;28;20048;-85
2020/12/01 14:57:41;;;;;;;35.28;17.98;;;;;;;;;;5101160;28;20067;-84
2020/12/01 15:00:39;;;;;;;33.97;17.63;;;;;;;;;;5095851;28;20044;-83
2020/12/01 15:03:26;;;;;;;34.08;18.88;;;;;;;;;;5048327;28;20436;-83
2020/12/01 15:05:59;;;;;;;32.00;17.13;;;;;;;;;;5076824;28;20078;-83
2020/12/01 15:11:54;;;;;;;35.70;19.73;;;;;;;;;;5098067;28;20083;-83
2020/12/01 15:14:21;;;;;;;42.83;21.58;;;;;;;;;;5083897;28;20245;-84
2020/12/01 15:17:06;;;;;;;43.50;22.88;;;;;;;;;;5098610;28;20047;-86
2020/12/01 15:19:32;;;;;;;48.08;23.83;;;;;;;;;;5102660;28;20052;-83
2020/12/01 15:22:14;;;;;;;52.13;25.02;;;;;;;;;;5084357;28;20044;-83
2020/12/01 15:24:41;;;;;;;50.28;26.52;;;;;;;;;;5108555;28;20051;-83
2020/12/01 15:27:15;;;;;;;51.70;25.00;;;;;;;;;;5091039;28;20062;-83
2020/12/01 15:29:50;;;;;;;46.35;24.63;;;;;;;;;;5070980;28;20091;-84
2020/12/01 15:32:18;;;;;;;46.38;24.70;;;;;;;;;;5062648;28;20439;-84